Time;durP1;ratioP1;P1;durP2;ratioP2;P2;SDS_P1;SDS_P2;PMS_P1;PMS_P2;Temp;Humidity;BMP_temperature;BMP_pressure;BME280_temperature;BME280_humidity;BME280_pressure;Samples;Min_cycle;Max_cycle;Signal;HPM_P1;HPM_P2
2021/12/22 00:01:28;;;;;;;43.10;25.42;;;;;;;2.62;100.00;99702.16;4954248;28;20122;-89
2021/12/22 00:03:54;;;;;;;43.00;25.65;;;;;;;3.00;100.00;99747.41;4957345;28;20090;-89
2021/12/22 00:06:23;;;;;;;37.33;24.15;;;;;;;2.82;100.00;99717.81;4948591;28;20026;-88
2021/12/22 00:08:50;;;;;;;35.97;23.88;;;;;;;2.88;100.00;99712.13;4947768;28;20493;-87
2021/12/22 00:11:17;;;;;;;46.08;26.30;;;;;;;2.83;100.00;99712.50;4973688;28;20588;-91
2021/12/22 00:13:43;;;;;;;44.83;27.25;;;;;;;2.74;100.00;99689.09;4978846;28;20034;-92
2021/12/22 00:16:09;;;;;;;45.17;26.70;;;;;;;2.80;100.00;99698.97;4957930;29;20070;-89
2021/12/22 00:18:35;;;;;;;43.28;26.75;;;;;;;2.79;100.00;99681.78;4945817;28;20493;-90
2021/12/22 00:21:01;;;;;;;44.97;27.55;;;;;;;2.75;100.00;99675.19;4948614;28;20042;-89
2021/12/22 00:23:30;;;;;;;42.92;27.02;;;;;;;2.97;100.00;99710.53;4959276;28;20042;-90
2021/12/22 00:25:56;;;;;;;45.80;28.75;;;;;;;2.73;100.00;99680.53;4948053;28;20042;-87
2021/12/22 00:28:22;;;;;;;42.13;27.55;;;;;;;2.75;100.00;99695.94;4960746;28;20034;-89
2021/12/22 00:30:50;;;;;;;47.33;28.65;;;;;;;2.80;100.00;99701.56;4944394;28;20536;-87
2021/12/22 00:33:19;;;;;;;42.38;27.27;;;;;;;2.89;100.00;99713.75;4929825;28;20030;-87
2021/12/22 00:35:45;;;;;;;49.42;28.92;;;;;;;2.63;100.00;99693.41;4943799;28;20061;-86
2021/12/22 00:38:13;;;;;;;47.65;29.17;;;;;;;2.74;100.00;99702.06;4958467;28;20031;-87
2021/12/22 00:40:40;;;;;;;47.35;27.95;;;;;;;2.84;100.00;99705.56;4941081;28;20125;-86
2021/12/22 00:43:06;;;;;;;50.67;29.60;;;;;;;2.88;100.00;99717.31;4978760;28;20041;-86
2021/12/22 00:45:35;;;;;;;52.45;29.52;;;;;;;2.85;100.00;99712.38;4958908;28;20117;-84
2021/12/22 00:48:01;;;;;;;51.30;30.55;;;;;;;2.86;100.00;99714.03;4944153;28;20126;-87
2021/12/22 00:50:27;;;;;;;42.55;27.63;;;;;;;2.96;100.00;99725.28;4957684;28;20057;-86
2021/12/22 00:52:53;;;;;;;56.13;30.13;;;;;;;2.71;100.00;99701.38;4960623;28;20031;-85
2021/12/22 00:55:20;;;;;;;49.13;28.70;;;;;;;2.91;100.00;99731.78;4959965;28;20065;-87
2021/12/22 00:57:48;;;;;;;53.15;31.17;;;;;;;2.98;100.00;99725.97;4982587;28;20035;-85
2021/12/22 01:00:16;;;;;;;47.15;29.42;;;;;;;3.00;100.00;99718.88;4950320;28;20026;-87
2021/12/22 01:02:43;;;;;;;48.35;29.65;;;;;;;2.95;100.00;99692.53;4942480;28;20031;-86
2021/12/22 01:05:12;;;;;;;47.60;29.92;;;;;;;3.03;100.00;99711.78;4958235;28;20385;-86
2021/12/22 01:07:39;;;;;;;54.83;30.05;;;;;;;3.00;100.00;99695.53;4942401;28;20019;-86
2021/12/22 01:10:07;;;;;;;53.60;29.45;;;;;;;3.04;100.00;99697.88;4944796;28;20031;-86
2021/12/22 01:12:36;;;;;;;51.08;29.42;;;;;;;3.00;100.00;99698.13;4963060;28;20030;-86
2021/12/22 01:15:03;;;;;;;51.97;30.52;;;;;;;3.05;100.00;99704.69;4959565;28;20073;-86
2021/12/22 01:17:37;;;;;;;56.13;29.58;;;;;;;3.02;100.00;99689.41;4942113;28;20032;-88
2021/12/22 01:20:09;;;;;;;;;;;;;;;2.94;100.00;99700.41;4944355;28;20113;-88
2021/12/22 01:22:48;;;;;;;56.20;30.45;;;;;;;2.85;100.00;99668.31;4967207;28;20411;-85
2021/12/22 01:25:18;;;;;;;63.25;32.65;;;;;;;2.93;100.00;99675.44;4944058;28;20026;-86
2021/12/22 01:27:44;;;;;;;52.45;30.60;;;;;;;2.89;100.00;99664.50;4945565;28;20136;-89
2021/12/22 01:30:15;;;;;;;53.22;31.70;;;;;;;2.96;100.00;99676.00;4944741;28;20038;-87
2021/12/22 01:32:42;;;;;;;52.05;30.48;;;;;;;2.99;100.00;99677.50;4958593;28;20034;-87
2021/12/22 01:35:10;;;;;;;47.95;29.77;;;;;;;2.92;100.00;99668.59;4957922;28;20034;-88
2021/12/22 01:37:37;;;;;;;50.05;30.48;;;;;;;3.10;100.00;99679.19;4944763;28;20073;-87
2021/12/22 01:40:04;;;;;;;52.58;30.52;;;;;;;3.04;100.00;99664.97;4942737;28;20079;-87
2021/12/22 01:42:30;;;;;;;54.28;30.50;;;;;;;2.88;100.00;99651.66;4958504;28;20038;-88
2021/12/22 01:50:35;;;;;;;57.13;31.63;;;;;;;2.17;100.00;99663.50;4956816;28;20990;-86
2021/12/22 01:53:06;;;;;;;57.33;31.67;;;;;;;1.84;100.00;99628.09;4956665;28;20034;-86
2021/12/22 01:55:37;;;;;;;57.85;31.42;;;;;;;2.00;100.00;99652.75;4978150;28;20109;-87
2021/12/22 01:58:07;;;;;;;55.63;32.85;;;;;;;1.84;100.00;99640.19;4981075;28;20034;-86
2021/12/22 02:00:32;;;;;;;55.17;31.80;;;;;;;1.79;100.00;99652.69;4941846;28;20041;-86
2021/12/22 02:02:58;;;;;;;62.55;31.30;;;;;;;1.65;100.00;99635.69;4984299;28;20097;-87
2021/12/22 02:05:24;;;;;;;60.83;32.60;;;;;;;1.62;100.00;99647.09;4939621;28;20185;-86
2021/12/22 02:07:55;;;;;;;67.57;34.97;;;;;;;1.56;100.00;99658.72;4958002;28;20026;-86
2021/12/22 02:10:35;;;;;;;68.25;34.33;;;;;;;1.45;100.00;99651.00;4943701;28;20038;-87
2021/12/22 02:13:03;;;;;;;63.63;33.75;;;;;;;1.39;100.00;99636.78;4940242;28;20034;-87
2021/12/22 02:15:33;;;;;;;59.60;33.30;;;;;;;1.47;100.00;99662.06;4940013;28;20042;-87
2021/12/22 02:18:02;;;;;;;63.72;34.33;;;;;;;1.39;100.00;99667.03;4957262;28;20107;-87
2021/12/22 02:20:28;;;;;;;59.88;32.35;;;;;;;1.41;100.00;99665.94;4942363;28;20038;-86
2021/12/22 02:22:55;;;;;;;66.75;35.00;;;;;;;1.23;100.00;99652.69;4942261;28;20146;-86
2021/12/22 02:25:30;;;;;;;64.45;34.28;;;;;;;1.21;100.00;99651.16;4961222;28;20549;-85
2021/12/22 02:27:56;;;;;;;68.45;34.67;;;;;;;1.14;100.00;99637.88;4963531;28;20083;-86
2021/12/22 02:30:26;;;;;;;69.30;34.60;;;;;;;1.09;100.00;99635.66;4987874;28;20072;-86
2021/12/22 02:35:41;;;;;;;71.40;36.67;;;;;;;0.96;100.00;99633.16;4983998;28;20030;-88
2021/12/22 02:38:13;;;;;;;69.30;35.53;;;;;;;0.94;100.00;99623.91;4985404;28;20049;-88
2021/12/22 02:40:40;;;;;;;71.03;36.80;;;;;;;0.89;100.00;99629.41;4961571;28;20045;-85
2021/12/22 02:43:06;;;;;;;81.10;37.15;;;;;;;0.69;100.00;99603.34;4945550;28;20035;-88
2021/12/22 02:45:36;;;;;;;82.03;38.50;;;;;;;0.79;100.00;99620.72;4945678;28;20373;-86
2021/12/22 02:48:04;;;;;;;72.78;36.88;;;;;;;0.77;100.00;99630.34;4964450;28;20030;-86
2021/12/22 02:50:32;;;;;;;76.72;37.78;;;;;;;0.75;100.00;99627.06;4954878;28;20035;-88
2021/12/22 02:58:42;;;;;;;77.57;37.00;;;;;;;0.56;100.00;99620.69;4988964;28;20030;-87
2021/12/22 03:04:02;;;;;;;84.55;39.13;;;;;;;0.41;100.00;99625.25;4981316;28;20440;-86
2021/12/22 03:08:54;;;;;;;82.03;37.45;;;;;;;0.30;100.00;99602.81;4957033;28;20031;-88
2021/12/22 03:11:20;;;;;;;85.03;39.33;;;;;;;0.30;100.00;99602.81;4958797;28;20377;-88
2021/12/22 03:13:45;;;;;;;83.38;38.38;;;;;;;0.26;100.00;99603.97;4981848;28;20039;-86
2021/12/22 03:16:11;;;;;;;79.38;38.15;;;;;;;0.25;100.00;99610.88;4960665;28;20069;-85
2021/12/22 03:18:37;;;;;;;81.18;37.97;;;;;;;0.17;100.00;99612.38;4945861;28;20485;-86
2021/12/22 03:21:17;;;;;;;79.63;36.33;;;;;;;0.01;100.00;99587.72;4961761;28;20034;-84
2021/12/22 03:23:42;;;;;;;81.82;36.75;;;;;;;0.12;100.00;99607.59;4957701;28;20031;-87
2021/12/22 03:26:08;;;;;;;79.15;37.80;;;;;;;-0.02;100.00;99587.94;4961605;28;20018;-87
2021/12/22 03:28:34;;;;;;;77.82;36.20;;;;;;;-0.11;100.00;99579.09;4984086;28;20455;-87
2021/12/22 03:31:02;;;;;;;79.80;35.55;;;;;;;0.01;100.00;99598.06;4944708;28;20034;-86
2021/12/22 03:33:27;;;;;;;84.65;38.13;;;;;;;-0.15;100.00;99573.34;4987144;28;20034;-86
2021/12/22 03:35:53;;;;;;;79.10;38.83;;;;;;;-0.03;100.00;99588.84;4987868;28;20050;-85
2021/12/22 03:38:20;;;;;;;84.28;37.45;;;;;;;0.02;100.00;99586.78;4967278;28;20027;-87
2021/12/22 03:40:46;;;;;;;77.18;36.72;;;;;;;0.07;100.00;99582.09;4943915;28;20055;-87
2021/12/22 03:43:12;;;;;;;87.80;38.30;;;;;;;0.06;100.00;99564.13;4958672;28;20043;-85
2021/12/22 03:45:37;;;;;;;83.10;39.25;;;;;;;-0.01;100.00;99568.91;4949439;28;20181;-85
2021/12/22 03:48:03;;;;;;;85.47;38.58;;;;;;;0.02;100.00;99573.88;4961359;28;20477;-86
2021/12/22 03:50:29;;;;;;;82.32;38.05;;;;;;;-0.04;100.00;99559.66;4960151;28;20029;-86
2021/12/22 03:52:54;;;;;;;86.45;39.47;;;;;;;0.03;100.00;99551.47;4960419;28;20102;-86
2021/12/22 03:55:20;;;;;;;94.57;40.33;;;;;;;0.04;100.00;99556.53;4944549;28;20034;-86
2021/12/22 03:57:46;;;;;;;83.60;38.17;;;;;;;0.10;100.00;99561.22;4943427;28;20057;-85
2021/12/22 04:00:13;;;;;;;86.30;39.85;;;;;;;0.10;100.00;99565.56;4959690;28;20039;-88
2021/12/22 04:02:39;;;;;;;92.07;38.97;;;;;;;0.18;100.00;99565.81;4969486;28;20028;-87
2021/12/22 04:05:06;;;;;;;83.50;39.10;;;;;;;-0.02;100.00;99549.22;4957834;28;20026;-87
2021/12/22 04:07:32;;;;;;;96.93;41.10;;;;;;;-0.03;100.00;99560.47;4943536;28;22201;-87
2021/12/22 04:09:58;;;;;;;87.28;39.13;;;;;;;0.00;100.00;99555.09;4955543;28;20086;-86
2021/12/22 04:12:24;;;;;;;86.10;38.90;;;;;;;-0.12;100.00;99550.84;4945107;28;20109;-87
2021/12/22 04:14:50;;;;;;;87.32;37.90;;;;;;;-0.02;100.00;99573.28;4957104;28;20126;-89
2021/12/22 04:17:16;;;;;;;86.07;36.45;;;;;;;-0.01;100.00;99571.50;4930780;29;20062;-87
2021/12/22 04:19:41;;;;;;;95.85;39.50;;;;;;;-0.07;100.00;99567.63;4944269;29;20124;-88
2021/12/22 04:22:08;;;;;;;94.45;40.28;;;;;;;-0.13;100.00;99549.19;4931224;29;20063;-87
2021/12/22 04:24:34;;;;;;;91.20;39.67;;;;;;;-0.01;100.00;99548.28;4950294;29;20042;-85
2021/12/22 04:27:00;;;;;;;102.43;40.97;;;;;;;-0.17;100.00;99522.78;4949099;29;20058;-86
2021/12/22 04:29:26;;;;;;;100.80;39.10;;;;;;;-0.09;100.00;99541.13;4932570;29;20598;-85
2021/12/22 04:31:51;;;;;;;98.20;39.53;;;;;;;-0.21;100.00;99511.88;4946392;29;20070;-87
2021/12/22 04:34:17;;;;;;;91.35;38.45;;;;;;;-0.19;100.00;99524.66;4955660;29;20098;-86
2021/12/22 04:36:43;;;;;;;93.47;39.47;;;;;;;-0.34;100.00;99508.56;4931254;29;20485;-86
2021/12/22 04:39:10;;;;;;;100.72;41.70;;;;;;;-0.21;100.00;99537.66;4941871;28;20042;-87
2021/12/22 04:41:36;;;;;;;95.20;38.63;;;;;;;-0.18;100.00;99545.19;4926158;29;20160;-86
2021/12/22 04:44:02;;;;;;;82.78;38.58;;;;;;;-0.37;100.00;99511.38;4951298;29;20043;-86
2021/12/22 04:46:28;;;;;;;92.53;37.10;;;;;;;-0.44;100.00;99509.22;4928883;29;20023;-87
2021/12/22 04:48:54;;;;;;;88.38;36.85;;;;;;;-0.40;100.00;99511.56;4955602;29;20082;-86
2021/12/22 04:51:26;;;;;;;91.50;38.50;;;;;;;-0.48;100.00;99497.47;4929805;28;20038;-86
2021/12/22 04:54:03;;;;;;;88.53;36.45;;;;;;;-0.55;100.00;99488.56;4938251;29;20508;-86
2021/12/22 04:56:28;;;;;;;88.57;35.22;;;;;;;-0.49;100.00;99488.09;4938548;29;20039;-87
2021/12/22 04:58:54;;;;;;;82.93;32.88;;;;;;;-0.45;100.00;99510.16;4922394;29;20135;-86
2021/12/22 05:01:19;;;;;;;74.90;32.97;;;;;;;-0.48;100.00;99502.63;4930673;29;20073;-87
2021/12/22 05:03:45;;;;;;;81.03;33.70;;;;;;;-0.62;100.00;99479.59;4954849;29;20039;-87
2021/12/22 05:06:11;;;;;;;77.43;32.03;;;;;;;-0.47;100.00;99512.03;4947289;29;20027;-87
2021/12/22 05:08:36;;;;;;;87.18;34.97;;;;;;;-0.51;100.00;99495.13;4926581;29;20509;-87
2021/12/22 05:11:03;;;;;;;80.50;34.22;;;;;;;-0.54;100.00;99486.78;4929117;29;20053;-86
2021/12/22 05:13:29;;;;;;;77.43;33.90;;;;;;;-0.68;100.00;99465.44;4943425;29;20512;-85
2021/12/22 05:15:55;;;;;;;85.10;36.22;;;;;;;-0.69;100.00;99455.22;4952505;28;20120;-85
2021/12/22 05:20:48;;;;;;;76.90;33.25;;;;;;;-0.57;100.00;99472.38;4962556;28;20108;-86
2021/12/22 05:23:15;;;;;;;80.03;34.10;;;;;;;-0.66;100.00;99465.31;4943142;28;20121;-86
2021/12/22 05:25:41;;;;;;;77.63;33.63;;;;;;;-0.78;100.00;99452.38;4943708;28;20084;-85
2021/12/22 05:28:06;;;;;;;81.43;32.47;;;;;;;-0.80;100.00;99441.34;4985012;28;20443;-86
2021/12/22 05:30:32;;;;;;;84.28;34.50;;;;;;;-0.91;100.00;99421.50;4957963;28;20032;-88
2021/12/22 05:32:58;;;;;;;75.28;33.47;;;;;;;-0.87;100.00;99416.94;4944913;28;20108;-85
2021/12/22 05:35:23;;;;;;;80.28;32.88;;;;;;;-0.69;100.00;99437.16;4949987;28;20113;-85
2021/12/22 05:37:51;;;;;;;84.47;32.15;;;;;;;-0.88;100.00;99423.03;4960012;28;20111;-86
2021/12/22 05:40:17;;;;;;;80.25;31.85;;;;;;;-0.80;100.00;99432.78;4958458;28;20113;-86
2021/12/22 05:42:43;;;;;;;70.50;30.58;;;;;;;-0.93;100.00;99427.72;4942631;28;20026;-86
2021/12/22 05:45:09;;;;;;;73.18;27.63;;;;;;;-0.91;100.00;99431.81;4941300;28;20070;-88
2021/12/22 05:47:35;;;;;;;73.65;31.55;;;;;;;-1.04;100.00;99421.56;4943842;28;20085;-85
2021/12/22 05:50:03;;;;;;;80.65;31.15;;;;;;;-0.88;100.00;99436.75;4950134;28;20030;-87
2021/12/22 05:52:29;;;;;;;64.43;28.02;;;;;;;-0.90;100.00;99435.22;4984296;28;20023;-86
2021/12/22 05:54:55;;;;;;;72.78;30.30;;;;;;;-1.14;100.00;99405.13;4943726;28;20096;-86
2021/12/22 05:57:21;;;;;;;73.18;30.05;;;;;;;-1.00;100.00;99432.47;4980107;28;20027;-87
2021/12/22 05:59:47;;;;;;;68.57;29.60;;;;;;;-1.07;100.00;99426.13;4958416;28;20129;-87
2021/12/22 06:02:13;;;;;;;70.30;30.42;;;;;;;-1.02;100.00;99436.94;4945283;28;20026;-87
2021/12/22 06:04:38;;;;;;;75.25;30.10;;;;;;;-1.00;100.00;99427.31;4956037;29;20184;-86
2021/12/22 06:07:04;;;;;;;82.40;32.03;;;;;;;-1.11;100.00;99428.09;5003436;28;20089;-87
2021/12/22 06:09:30;;;;;;;83.45;31.10;;;;;;;-1.20;100.00;99408.13;4970229;28;20035;-86
2021/12/22 06:11:56;;;;;;;78.80;30.60;;;;;;;-1.08;100.00;99429.63;4950013;28;20501;-86
2021/12/22 06:14:22;;;;;;;70.18;28.75;;;;;;;-1.13;100.00;99424.81;4961734;28;20477;-86
2021/12/22 06:16:48;;;;;;;62.85;27.00;;;;;;;-1.21;100.00;99414.22;4944466;28;20054;-87
2021/12/22 06:19:15;;;;;;;64.60;23.98;;;;;;;-1.19;100.00;99408.03;4958111;28;20030;-85
2021/12/22 06:21:40;;;;;;;57.38;23.73;;;;;;;-1.04;100.00;99426.72;4987721;28;20118;-88
2021/12/22 06:24:08;;;;;;;52.47;22.63;;;;;;;-1.16;100.00;99401.84;4943515;28;20066;-85
2021/12/22 06:26:34;;;;;;;57.08;23.20;;;;;;;-1.07;100.00;99406.31;4941197;28;20026;-83
2021/12/22 06:29:00;;;;;;;58.28;24.02;;;;;;;-1.00;100.00;99396.41;4957060;28;20504;-85
2021/12/22 06:31:26;;;;;;;59.13;25.48;;;;;;;-0.84;100.00;99411.56;4957376;28;20105;-84
2021/12/22 06:33:52;;;;;;;64.60;25.02;;;;;;;-0.86;100.00;99390.25;4943087;28;20495;-84
2021/12/22 06:36:19;;;;;;;60.60;25.30;;;;;;;-0.76;100.00;99404.13;4957865;28;20504;-84
2021/12/22 06:38:44;;;;;;;59.97;24.52;;;;;;;-0.60;100.00;99411.53;4957300;28;20169;-85
2021/12/22 06:41:11;;;;;;;67.07;26.92;;;;;;;-0.67;100.00;99382.00;4957242;28;20061;-87
2021/12/22 06:43:37;;;;;;;65.78;25.75;;;;;;;-0.49;100.00;99415.06;4958660;28;20061;-87
2021/12/22 06:46:03;;;;;;;66.00;25.83;;;;;;;-0.55;100.00;99403.47;4941671;28;20157;-87
2021/12/22 06:48:29;;;;;;;56.05;24.65;;;;;;;-0.36;100.00;99427.88;4957204;28;20026;-88
2021/12/22 06:50:55;;;;;;;61.30;24.95;;;;;;;-0.54;100.00;99397.38;4943270;28;20031;-88
2021/12/22 06:53:21;;;;;;;76.00;28.02;;;;;;;-0.46;100.00;99413.09;4942573;28;20173;-88
2021/12/22 06:55:46;;;;;;;62.42;24.70;;;;;;;-0.48;100.00;99393.53;4957628;28;20211;-84
2021/12/22 06:58:12;;;;;;;62.75;24.65;;;;;;;-0.26;100.00;99420.28;4939061;28;20094;-86
2021/12/22 07:00:38;;;;;;;57.92;25.10;;;;;;;-0.32;100.00;99395.75;4956081;28;20557;-89
2021/12/22 07:03:06;;;;;;;68.25;26.45;;;;;;;-0.17;100.00;99410.09;4963693;28;20041;-85
2021/12/22 07:05:32;;;;;;;73.82;28.30;;;;;;;-0.15;100.00;99405.63;4956379;28;20030;-86
2021/12/22 07:07:58;;;;;;;75.38;27.13;;;;;;;-0.15;100.00;99413.38;4943684;28;20385;-86
2021/12/22 07:10:23;;;;;;;65.93;26.35;;;;;;;-0.25;100.00;99406.44;4943152;28;20034;-84
2021/12/22 07:12:49;;;;;;;73.00;28.60;;;;;;;-0.33;100.00;99414.75;4961205;28;20088;-87
2021/12/22 07:15:17;;;;;;;82.78;28.50;;;;;;;-0.30;100.00;99419.69;4947783;28;20047;-86
2021/12/22 07:17:44;;;;;;;60.35;24.60;;;;;;;-0.34;100.00;99407.97;4961963;28;20031;-86
2021/12/22 07:20:11;;;;;;;72.35;27.20;;;;;;;-0.37;100.00;99409.00;4946783;28;20165;-86
2021/12/22 07:22:41;;;;;;;64.80;26.92;;;;;;;-0.32;100.00;99426.72;4962312;28;20035;-86
2021/12/22 07:25:08;;;;;;;76.53;25.85;;;;;;;-0.56;100.00;99382.94;4957483;28;20381;-85
2021/12/22 07:27:33;;;;;;;67.40;27.50;;;;;;;-0.45;100.00;99401.84;4946889;28;20495;-85
2021/12/22 07:29:59;;;;;;;67.65;28.23;;;;;;;-0.36;100.00;99412.41;4961031;28;20031;-86
2021/12/22 07:32:25;;;;;;;63.40;26.60;;;;;;;-0.37;100.00;99390.13;4959694;28;20363;-85
2021/12/22 07:35:00;;;;;;;71.00;27.35;;;;;;;-0.37;100.00;99387.56;4964213;28;20089;-85
2021/12/22 07:37:38;;;;;;;66.18;25.05;;;;;;;0.02;100.00;99413.03;4959521;28;20448;-86
2021/12/22 07:40:05;;;;;;;71.10;27.50;;;;;;;-0.02;100.00;99412.44;4975919;28;20048;-86
2021/12/22 07:42:31;;;;;;;75.55;27.38;;;;;;;-0.20;100.00;99391.44;4959963;28;20039;-85
2021/12/22 07:44:56;;;;;;;68.13;25.95;;;;;;;-0.17;100.00;99401.53;4985385;28;20037;-85
2021/12/22 07:47:22;;;;;;;70.97;26.92;;;;;;;-0.26;100.00;99390.13;4962098;28;20073;-84
2021/12/22 07:49:47;;;;;;;71.50;26.38;;;;;;;-0.20;100.00;99391.44;4945651;28;20045;-86
2021/12/22 07:52:13;;;;;;;68.60;27.13;;;;;;;-0.07;100.00;99423.13;4961644;28;20062;-86
2021/12/22 07:54:40;;;;;;;63.95;25.67;;;;;;;-0.10;100.00;99410.44;4985102;28;20113;-88
2021/12/22 07:57:06;;;;;;;68.53;26.65;;;;;;;-0.03;100.00;99424.53;4957536;28;20126;-85
2021/12/22 07:59:32;;;;;;;71.47;26.65;;;;;;;-0.11;100.00;99419.09;4959629;28;20125;-86
2021/12/22 08:01:58;;;;;;;64.30;27.25;;;;;;;-0.05;100.00;99425.56;4960771;28;20467;-87
2021/12/22 08:04:24;;;;;;;68.53;27.15;;;;;;;-0.06;100.00;99416.19;4959948;28;20408;-83
2021/12/22 08:06:50;;;;;;;66.90;26.38;;;;;;;-0.01;100.00;99420.06;4942842;28;20019;-84
2021/12/22 08:09:16;;;;;;;63.95;26.67;;;;;;;-0.03;100.00;99415.94;4984912;28;20473;-85
2021/12/22 08:11:41;;;;;;;66.47;29.80;;;;;;;-0.05;100.00;99407.50;4961497;28;20177;-85
2021/12/22 08:14:07;;;;;;;75.07;27.13;;;;;;;0.09;100.00;99434.84;4940187;28;20122;-86
2021/12/22 08:16:32;;;;;;;68.18;26.20;;;;;;;0.02;100.00;99420.75;4960124;28;20043;-83
2021/12/22 08:18:58;;;;;;;65.90;26.42;;;;;;;0.02;100.00;99406.13;4984449;28;20031;-85
2021/12/22 08:21:25;;;;;;;78.63;28.33;;;;;;;0.19;100.00;99419.47;4983651;28;20058;-86
2021/12/22 08:23:50;;;;;;;65.72;26.60;;;;;;;0.28;100.00;99434.25;4942494;28;20048;-82
2021/12/22 08:26:16;;;;;;;66.00;27.10;;;;;;;0.10;100.00;99401.19;4961864;28;20026;-86
2021/12/22 08:28:41;;;;;;;78.70;27.20;;;;;;;0.24;100.00;99412.22;4945436;28;20125;-84
2021/12/22 08:31:07;;;;;;;65.25;25.77;;;;;;;0.40;100.00;99433.31;4958897;28;20035;-85
2021/12/22 08:33:38;;;;;;;65.85;25.70;;;;;;;0.26;100.00;99400.00;4959618;28;20392;-84
2021/12/22 08:38:51;;;;;;;61.22;24.52;;;;;;;0.51;100.00;99417.00;4958472;28;20098;-86
2021/12/22 08:41:19;;;;;;;63.15;24.92;;;;;;;0.46;100.00;99382.13;4930164;28;20038;-85
2021/12/22 08:43:44;;;;;;;58.72;24.80;;;;;;;0.54;100.00;99392.66;4961851;28;20061;-85
2021/12/22 08:46:10;;;;;;;63.75;24.83;;;;;;;0.47;100.00;99365.69;4942340;28;20038;-85
2021/12/22 08:48:36;;;;;;;59.65;24.90;;;;;;;0.61;100.00;99375.75;4961456;28;20042;-83
2021/12/22 08:51:02;;;;;;;63.00;25.40;;;;;;;0.79;100.00;99398.50;4961986;28;20031;-83
2021/12/22 08:53:27;;;;;;;70.10;28.40;;;;;;;0.68;100.00;99399.31;4959032;28;20545;-83
2021/12/22 08:55:53;;;;;;;62.15;25.67;;;;;;;0.71;100.00;99405.06;4942612;28;20034;-82
2021/12/22 08:58:19;;;;;;;56.60;24.38;;;;;;;0.85;100.00;99405.75;4942455;28;20089;-83
2021/12/22 09:00:45;;;;;;;59.35;24.35;;;;;;;0.94;100.00;99410.16;4961781;28;20041;-84
2021/12/22 09:03:10;;;;;;;69.07;26.27;;;;;;;0.76;100.00;99388.38;4958856;28;20050;-82
2021/12/22 09:05:36;;;;;;;58.90;24.08;;;;;;;0.71;100.00;99361.16;4957663;28;20027;-84
2021/12/22 09:08:02;;;;;;;63.95;25.45;;;;;;;0.98;100.00;99398.66;4944563;28;20027;-86
2021/12/22 09:10:29;;;;;;;67.07;26.48;;;;;;;0.94;100.00;99379.16;4959004;28;20038;-82
2021/12/22 09:12:55;;;;;;;63.40;24.90;;;;;;;1.10;100.00;99375.31;4958665;28;20034;-82
2021/12/22 09:15:20;;;;;;;60.63;25.85;;;;;;;1.05;100.00;99373.09;4945598;28;20058;-84
2021/12/22 09:17:46;;;;;;;57.22;25.15;;;;;;;1.02;100.00;99349.28;4946249;28;20047;-88
2021/12/22 09:20:13;;;;;;;53.22;23.65;;;;;;;1.20;100.00;99358.13;4945248;28;20046;-87
2021/12/22 09:22:40;;;;;;;64.95;24.17;;;;;;;1.32;100.00;99365.81;4978356;28;20037;-86
2021/12/22 09:25:07;;;;;;;60.38;26.02;;;;;;;1.30;100.00;99347.00;4965639;28;20098;-85
2021/12/22 09:27:36;;;;;;;56.33;23.77;;;;;;;1.55;100.00;99376.84;4998898;28;20026;-84
2021/12/22 09:30:04;;;;;;;53.50;24.17;;;;;;;1.70;100.00;99385.09;4954527;28;20129;-83
2021/12/22 09:32:29;;;;;;;54.50;24.05;;;;;;;1.57;100.00;99359.41;4958575;28;20054;-84
2021/12/22 09:34:55;;;;;;;60.53;25.17;;;;;;;1.55;100.00;99346.59;4958721;28;20039;-82
2021/12/22 09:37:21;;;;;;;56.15;23.88;;;;;;;1.76;100.00;99383.75;4958504;28;20038;-83
2021/12/22 09:39:46;;;;;;;49.28;22.85;;;;;;;1.72;100.00;99352.13;4956450;28;20042;-83
2021/12/22 09:42:12;;;;;;;55.55;22.27;;;;;;;1.89;100.00;99368.00;4981328;28;20038;-83
2021/12/22 09:44:44;;;;;;;46.50;21.13;;;;;;;1.92;100.00;99372.91;4978207;28;20511;-82
2021/12/22 09:47:11;;;;;;;49.65;21.60;;;;;;;2.11;100.00;99378.16;4957072;28;20500;-84
2021/12/22 09:49:47;;;;;;;55.35;20.98;;;;;;;2.06;100.00;99351.03;4942646;28;20026;-83
2021/12/22 09:52:19;;;;;;;51.63;20.88;;;;;;;2.13;100.00;99363.31;4956001;28;20035;-82
2021/12/22 09:54:47;;;;;;;40.35;19.83;;;;;;;2.11;100.00;99346.28;4981052;28;20036;-84
2021/12/22 09:57:15;;;;;;;45.35;20.23;;;;;;;2.23;100.00;99349.59;4937697;28;20118;-82
2021/12/22 09:59:49;;;;;;;43.10;20.10;;;;;;;2.35;100.00;99338.16;4940472;28;20489;-83
2021/12/22 10:02:17;;;;;;;42.05;19.80;;;;;;;2.31;100.00;99331.59;4957465;28;20105;-83
2021/12/22 10:04:43;;;;;;;42.00;19.60;;;;;;;2.34;100.00;99341.69;4969824;28;20031;-82
2021/12/22 10:07:16;;;;;;;42.38;19.05;;;;;;;2.48;100.00;99342.25;4957162;28;20114;-83
2021/12/22 10:09:46;;;;;;;44.90;20.17;;;;;;;2.42;100.00;99334.09;4954705;28;20031;-84
2021/12/22 10:12:24;;;;;;;39.63;19.20;;;;;;;2.43;100.00;99334.88;4978827;28;20067;-86
2021/12/22 10:15:01;;;;;;;44.45;19.02;;;;;;;2.48;100.00;99342.25;4940939;28;20046;-84
2021/12/22 10:17:40;;;;;;;40.10;18.27;;;;;;;2.49;100.00;99336.13;4979132;28;20046;-84
2021/12/22 10:20:20;;;;;;;40.40;18.08;;;;;;;2.57;100.00;99344.06;4954738;28;21096;-83
2021/12/22 10:22:48;;;;;;;37.95;18.17;;;;;;;2.60;100.00;99338.59;4956193;28;20066;-83
2021/12/22 10:25:18;;;;;;;41.38;17.90;;;;;;;2.73;100.00;99348.69;4955295;28;20035;-86
2021/12/22 10:27:56;;;;;;;45.20;19.45;;;;;;;2.64;100.00;99326.16;4982804;28;20022;-85
2021/12/22 10:30:34;;;;;;;38.47;18.40;;;;;;;2.65;100.00;99333.00;4979982;28;20797;-83
2021/12/22 10:33:15;;;;;;;39.28;18.00;;;;;;;2.58;100.00;99332.75;4961863;28;20124;-83
2021/12/22 10:35:55;;;;;;;35.60;16.40;;;;;;;2.59;100.00;99344.75;4947793;28;20034;-84
2021/12/22 10:38:27;;;;;;;36.17;16.30;;;;;;;2.51;100.00;99324.69;4957670;28;20480;-85
2021/12/22 10:40:56;;;;;;;41.88;18.63;;;;;;;2.58;100.00;99312.00;4939607;28;20038;-87
2021/12/22 10:43:29;;;;;;;36.53;17.30;;;;;;;2.60;100.00;99310.09;4952371;28;20035;-86
2021/12/22 10:46:00;;;;;;;37.90;17.45;;;;;;;2.75;100.00;99307.91;4959525;28;20049;-83
2021/12/22 10:51:19;;;;;;;35.45;16.70;;;;;;;2.93;100.00;99302.81;4986327;28;20129;-84
2021/12/22 10:53:50;;;;;;;42.28;17.45;;;;;;;3.01;100.00;99296.97;4958013;28;20031;-84
2021/12/22 10:56:22;;;;;;;40.30;18.60;;;;;;;3.07;100.00;99293.00;4944060;28;20038;-83
2021/12/22 10:58:59;;;;;;;45.90;19.40;;;;;;;2.94;100.00;99265.56;4943156;28;20038;-84
2021/12/22 11:01:24;;;;;;;43.45;19.50;;;;;;;2.86;100.00;99273.25;4965215;28;20113;-86
2021/12/22 11:04:01;;;;;;;40.35;20.88;;;;;;;3.03;100.00;99274.28;4942726;28;20038;-86
2021/12/22 11:06:30;;;;;;;42.78;21.13;;;;;;;3.00;100.00;99254.66;4983250;28;20054;-85
2021/12/22 11:08:58;;;;;;;39.78;18.45;;;;;;;2.84;100.00;99249.22;4961078;28;20081;-86
2021/12/22 11:11:30;;;;;;;46.85;19.73;;;;;;;2.84;100.00;99238.84;4983522;28;20151;-84
2021/12/22 11:14:01;;;;;;;49.00;21.27;;;;;;;3.03;100.00;99240.56;4985214;28;20030;-84
2021/12/22 11:16:27;;;;;;;57.70;22.70;;;;;;;3.04;100.00;99238.81;4943048;28;20066;-86
2021/12/22 11:18:53;;;;;;;50.80;23.25;;;;;;;3.19;100.00;99223.59;4962104;28;20042;-85
2021/12/22 11:21:30;;;;;;;38.22;19.15;;;;;;;3.26;100.00;99232.47;4943927;28;20034;-85
2021/12/22 11:23:55;;;;;;;37.72;19.50;;;;;;;3.21;100.00;99214.72;4940041;28;20035;-85
2021/12/22 11:26:21;;;;;;;32.75;16.80;;;;;;;3.23;100.00;99212.81;4946780;28;20033;-83
2021/12/22 11:28:47;;;;;;;37.90;18.52;;;;;;;2.96;100.00;99206.63;4945231;28;20042;-83
2021/12/22 11:31:14;;;;;;;38.15;18.65;;;;;;;3.15;100.00;99204.94;4943663;28;20420;-83
2021/12/22 11:33:40;;;;;;;39.80;18.45;;;;;;;3.19;100.00;99200.25;4959006;28;20033;-84
2021/12/22 11:36:08;;;;;;;31.63;17.02;;;;;;;3.19;100.00;99190.72;4945603;28;20555;-83
2021/12/22 11:38:34;;;;;;;35.92;18.83;;;;;;;3.08;100.00;99190.88;4960706;28;20038;-85
2021/12/22 11:41:13;;;;;;;40.92;17.85;;;;;;;3.00;100.00;99153.53;4944687;28;20384;-85
2021/12/22 11:43:41;;;;;;;34.22;16.77;;;;;;;3.11;100.00;99172.44;4959110;28;20593;-85